createdAt,value
2023-02-04T00:00:09.403Z,10.26
2023-02-04T00:02:36.143Z,10.26
2023-02-04T00:05:02.813Z,9.96
2023-02-04T00:07:29.433Z,9.88
2023-02-04T00:09:56.084Z,9.99
2023-02-04T00:12:22.833Z,9.94
2023-02-04T00:14:49.507Z,9.50
2023-02-04T00:17:16.221Z,9.49
2023-02-04T00:19:42.840Z,9.73
2023-02-04T00:22:09.503Z,9.84
2023-02-04T00:24:36.150Z,9.92
2023-02-04T00:27:02.786Z,9.89
2023-02-04T00:29:29.444Z,9.84
2023-02-04T00:31:56.221Z,9.74
2023-02-04T00:34:22.951Z,9.72
2023-02-04T00:36:49.664Z,10.12
2023-02-04T00:39:16.327Z,10.00
2023-02-04T00:41:43.021Z,9.98
2023-02-04T00:44:09.633Z,10.10
2023-02-04T00:46:36.278Z,10.00
2023-02-04T00:49:02.962Z,10.07
2023-02-04T00:51:29.675Z,10.17
2023-02-04T00:53:56.328Z,10.23
2023-02-04T00:56:22.985Z,9.86
2023-02-04T00:58:49.684Z,10.07
2023-02-04T01:01:16.383Z,10.00
2023-02-04T01:03:43.177Z,9.61
2023-02-04T01:06:09.813Z,9.66
2023-02-04T01:08:36.537Z,9.94
2023-02-04T01:11:03.191Z,9.92
2023-02-04T01:13:29.874Z,9.98
2023-02-04T01:15:56.582Z,9.93
2023-02-04T01:18:23.265Z,9.25
2023-02-04T01:20:49.870Z,9.32
2023-02-04T01:23:16.506Z,9.77
2023-02-04T01:25:43.104Z,9.58
2023-02-04T01:28:09.811Z,9.60
2023-02-04T01:30:36.551Z,9.64
2023-02-04T01:33:03.252Z,9.79
2023-02-04T01:35:29.976Z,9.44
2023-02-04T01:37:56.672Z,9.48
2023-02-04T01:40:23.318Z,9.62
2023-02-04T01:42:49.944Z,9.67
2023-02-04T01:45:16.584Z,9.65
2023-02-04T01:47:43.247Z,9.76
2023-02-04T01:50:09.852Z,9.52
2023-02-04T01:52:36.531Z,9.30
2023-02-04T01:55:03.191Z,9.52
2023-02-04T01:57:29.924Z,9.42
2023-02-04T01:59:56.577Z,9.24
2023-02-04T02:02:23.329Z,9.32
2023-02-04T02:04:50.070Z,9.18
2023-02-04T02:07:16.738Z,9.12
2023-02-04T02:09:43.410Z,9.07
2023-02-04T02:12:10.049Z,8.95
2023-02-04T02:14:36.704Z,9.14
2023-02-04T02:17:03.457Z,9.19
2023-02-04T02:19:30.122Z,9.32
2023-02-04T02:21:58.671Z,9.38
2023-02-04T02:24:25.343Z,9.43
2023-02-04T02:26:51.936Z,9.70
2023-02-04T02:29:18.586Z,9.93
2023-02-04T02:31:45.297Z,9.82
2023-02-04T02:34:11.995Z,9.48
2023-02-04T02:36:38.708Z,9.52
2023-02-04T02:39:06.422Z,9.58
2023-02-04T02:41:33.218Z,9.92
2023-02-04T02:43:59.841Z,9.47
2023-02-04T02:46:26.568Z,9.24
2023-02-04T02:48:53.219Z,9.17
2023-02-04T02:51:19.825Z,9.19
2023-02-04T02:53:46.491Z,9.62
2023-02-04T02:56:13.182Z,9.32
2023-02-04T02:58:39.806Z,9.44
2023-02-04T03:01:06.466Z,9.57
2023-02-04T03:03:33.188Z,9.77
2023-02-04T03:05:59.788Z,9.55
2023-02-04T03:08:26.416Z,9.56
2023-02-04T03:10:53.086Z,9.42
2023-02-04T03:13:19.725Z,9.69
2023-02-04T03:15:46.431Z,9.27
2023-02-04T03:18:13.129Z,9.07
2023-02-04T03:20:39.830Z,9.06
2023-02-04T03:23:06.423Z,9.06
2023-02-04T03:25:33.020Z,9.18
2023-02-04T03:27:59.727Z,9.34
2023-02-04T03:30:26.428Z,9.19
2023-02-04T03:32:53.096Z,9.03
2023-02-04T03:35:19.795Z,9.10
2023-02-04T03:37:46.550Z,8.90
2023-02-04T03:40:13.192Z,8.97
2023-02-04T03:42:39.838Z,9.20
2023-02-04T03:45:06.465Z,9.13
2023-02-04T03:47:33.159Z,9.16
2023-02-04T03:49:59.837Z,9.19
2023-02-04T03:52:26.530Z,9.15
2023-02-04T03:54:53.153Z,9.07
2023-02-04T03:57:19.836Z,9.02
2023-02-04T03:59:46.475Z,9.20
2023-02-04T04:02:13.094Z,9.38
2023-02-04T04:04:39.783Z,9.12
2023-02-04T04:07:06.439Z,9.52
2023-02-04T04:09:33.087Z,9.74
2023-02-04T04:11:59.716Z,9.96
2023-02-04T04:14:26.355Z,10.05
2023-02-04T04:16:53.048Z,9.87
2023-02-04T04:19:19.696Z,9.84
2023-02-04T04:21:46.325Z,9.58
2023-02-04T04:24:12.981Z,9.65
2023-02-04T04:26:39.601Z,9.68
2023-02-04T04:29:06.187Z,9.67
2023-02-04T04:31:32.937Z,9.82
2023-02-04T04:33:59.715Z,9.96
2023-02-04T04:36:26.537Z,9.92
2023-02-04T04:38:53.228Z,10.05
2023-02-04T04:41:19.864Z,10.14
2023-02-04T04:43:46.550Z,10.16
2023-02-04T04:46:13.212Z,10.28
2023-02-04T04:48:39.939Z,10.17
2023-02-04T04:51:06.599Z,9.82
2023-02-04T04:53:33.286Z,9.66
2023-02-04T04:55:59.959Z,9.80
2023-02-04T04:58:26.598Z,9.98
2023-02-04T05:00:53.304Z,10.48
2023-02-04T05:03:19.995Z,10.45
2023-02-04T05:05:46.612Z,10.46
2023-02-04T05:08:13.374Z,10.20
2023-02-04T05:10:40.028Z,10.31
2023-02-04T05:13:06.740Z,10.46
2023-02-04T05:15:33.393Z,10.19
2023-02-04T05:18:00.041Z,10.45
2023-02-04T05:20:26.670Z,10.52
2023-02-04T05:22:53.357Z,10.51
2023-02-04T05:25:20.007Z,10.69
2023-02-04T05:27:46.740Z,10.57
2023-02-04T05:30:13.423Z,10.43
2023-02-04T05:32:40.077Z,10.50
2023-02-04T05:35:06.773Z,10.09
2023-02-04T05:37:33.458Z,9.71
2023-02-04T05:40:00.179Z,9.86
2023-02-04T05:42:26.778Z,9.72
2023-02-04T05:44:53.417Z,9.65
2023-02-04T05:47:20.295Z,9.87
2023-02-04T05:49:46.944Z,10.18
2023-02-04T05:52:13.614Z,10.24
2023-02-04T05:54:40.239Z,10.35
2023-02-04T05:57:06.908Z,10.35
2023-02-04T05:59:33.584Z,9.25
2023-02-04T06:02:00.230Z,9.50
2023-02-04T06:04:26.974Z,9.25
2023-02-04T06:06:53.696Z,9.45
2023-02-04T06:09:20.358Z,9.56
2023-02-04T06:11:47.008Z,9.83
2023-02-04T06:14:13.748Z,9.77
2023-02-04T06:16:40.512Z,9.72
2023-02-04T06:19:07.210Z,9.72
2023-02-04T06:21:33.885Z,9.44
2023-02-04T06:24:00.553Z,9.61
2023-02-04T06:26:27.259Z,9.90
2023-02-04T06:28:53.920Z,9.98
2023-02-04T06:31:20.714Z,9.94
2023-02-04T06:33:47.361Z,9.92
2023-02-04T06:36:14.328Z,9.88
2023-02-04T06:38:41.762Z,9.99
2023-02-04T06:41:08.434Z,10.05
2023-02-04T06:43:35.089Z,9.91
2023-02-04T06:46:01.786Z,10.18
2023-02-04T06:48:30.987Z,10.05
2023-02-04T06:50:57.783Z,9.85
2023-02-04T06:53:24.429Z,9.56
2023-02-04T06:55:51.130Z,9.46
2023-02-04T06:58:17.762Z,9.56
2023-02-04T07:00:44.428Z,9.86
2023-02-04T07:03:11.160Z,9.26
2023-02-04T07:05:37.893Z,9.63
2023-02-04T07:08:04.583Z,9.73
2023-02-04T07:10:31.604Z,9.22
2023-02-04T07:12:58.450Z,8.76
2023-02-04T07:15:25.077Z,7.81
2023-02-04T07:17:54.779Z,7.47
2023-02-04T07:20:21.482Z,7.24
2023-02-04T07:22:48.097Z,7.94
2023-02-04T07:25:14.759Z,7.72
2023-02-04T07:27:41.439Z,7.91
2023-02-04T07:30:08.096Z,8.27
2023-02-04T07:32:34.735Z,8.42
2023-02-04T07:35:01.601Z,8.58
2023-02-04T07:37:28.261Z,8.68
2023-02-04T07:39:54.864Z,8.73
2023-02-04T07:42:21.527Z,8.79
2023-02-04T07:44:48.173Z,8.63
2023-02-04T07:47:14.845Z,8.89
2023-02-04T07:49:41.436Z,9.10
2023-02-04T07:52:08.084Z,9.12
2023-02-04T07:54:34.735Z,8.97
2023-02-04T07:57:01.447Z,9.03
2023-02-04T07:59:28.317Z,8.61
2023-02-04T08:01:55.012Z,8.74
2023-02-04T08:04:21.738Z,9.14
2023-02-04T08:06:48.406Z,9.49
2023-02-04T08:09:15.077Z,9.61
2023-02-04T08:11:41.688Z,9.44
2023-02-04T08:14:08.390Z,9.38
2023-02-04T08:16:35.042Z,9.38
2023-02-04T08:19:01.731Z,9.80
2023-02-04T08:21:29.377Z,9.55
2023-02-04T08:23:56.037Z,9.53
2023-02-04T08:26:22.692Z,10.13
2023-02-04T08:28:49.392Z,9.90
2023-02-04T08:31:16.075Z,9.89
2023-02-04T08:33:42.775Z,10.12
2023-02-04T08:36:09.494Z,10.54
2023-02-04T08:38:36.111Z,10.29
2023-02-04T08:41:02.913Z,9.87
2023-02-04T08:43:29.572Z,9.83
2023-02-04T08:45:56.245Z,9.10
2023-02-04T08:48:22.849Z,9.43
2023-02-04T08:50:49.498Z,9.17
2023-02-04T08:53:16.164Z,9.10
2023-02-04T08:55:42.795Z,8.83
2023-02-04T08:58:09.440Z,8.63
2023-02-04T09:00:36.298Z,9.00
2023-02-04T09:03:03.172Z,8.55
2023-02-04T09:05:29.868Z,8.80
2023-02-04T09:07:56.587Z,9.22
2023-02-04T09:10:23.261Z,9.27
2023-02-04T09:12:49.928Z,8.92
2023-02-04T09:15:16.597Z,9.31
2023-02-04T09:17:43.235Z,9.38
2023-02-04T09:20:09.844Z,9.49
2023-02-04T09:22:36.488Z,9.74
2023-02-04T09:25:03.197Z,9.15
2023-02-04T09:27:29.939Z,9.52
2023-02-04T09:29:56.717Z,9.96
2023-02-04T09:32:23.378Z,9.31
2023-02-04T09:37:34.324Z,9.50
2023-02-04T09:40:01.041Z,9.78
2023-02-04T09:42:27.690Z,10.00
2023-02-04T09:44:54.357Z,10.50
2023-02-04T09:47:21.079Z,10.62
2023-02-04T09:49:47.809Z,10.10
2023-02-04T09:52:14.501Z,9.88
2023-02-04T09:54:41.112Z,10.01
2023-02-04T09:57:07.731Z,9.63
2023-02-04T09:59:34.378Z,9.89
2023-02-04T10:02:01.002Z,10.24
2023-02-04T10:04:27.644Z,10.60
2023-02-04T10:06:54.375Z,10.39
2023-02-04T10:09:21.054Z,10.24
2023-02-04T10:11:47.697Z,9.39
2023-02-04T10:14:14.338Z,9.81
2023-02-04T10:16:40.975Z,10.20
2023-02-04T10:19:07.929Z,9.86
2023-02-04T10:21:34.569Z,10.80
2023-02-04T10:24:01.194Z,9.85
2023-02-04T10:26:27.856Z,9.77
2023-02-04T10:28:54.532Z,9.68
2023-02-04T10:31:21.353Z,9.48
2023-02-04T10:33:48.057Z,10.28
2023-02-04T10:36:14.764Z,10.16
2023-02-04T10:38:41.367Z,9.80
2023-02-04T10:41:08.078Z,9.88
2023-02-04T10:43:34.741Z,9.68
2023-02-04T10:46:01.404Z,10.22
2023-02-04T10:48:28.047Z,10.06
2023-02-04T10:50:54.701Z,9.98
2023-02-04T10:53:21.379Z,9.89
2023-02-04T10:55:48.045Z,10.13
2023-02-04T10:58:14.713Z,9.98
2023-02-04T11:00:41.316Z,9.75
2023-02-04T11:03:08.046Z,9.97
2023-02-04T11:05:34.768Z,9.92
2023-02-04T11:08:01.421Z,9.65
2023-02-04T11:10:28.049Z,9.61
2023-02-04T11:12:54.646Z,9.43
2023-02-04T11:15:21.368Z,9.76
2023-02-04T11:17:47.988Z,10.26
2023-02-04T11:20:14.599Z,11.07
2023-02-04T11:22:41.298Z,11.34
2023-02-04T11:25:08.062Z,10.93
2023-02-04T11:27:34.736Z,10.69
2023-02-04T11:30:01.350Z,11.00
2023-02-04T11:32:28.085Z,10.72
2023-02-04T11:34:54.738Z,10.80
2023-02-04T11:37:21.371Z,11.81
2023-02-04T11:39:48.053Z,11.85
2023-02-04T11:42:14.725Z,11.30
2023-02-04T11:44:41.387Z,10.49
2023-02-04T11:47:07.982Z,10.74
2023-02-04T11:49:34.600Z,10.89
2023-02-04T11:52:01.242Z,10.03
2023-02-04T11:54:27.911Z,9.82
2023-02-04T11:56:54.702Z,9.85
2023-02-04T11:59:21.451Z,10.35
2023-02-04T12:01:48.093Z,9.94
2023-02-04T12:04:14.722Z,9.01
2023-02-04T12:06:41.397Z,8.93
2023-02-04T12:09:08.054Z,8.73
2023-02-04T12:11:34.724Z,9.18
2023-02-04T12:14:01.382Z,8.89
2023-02-04T12:16:28.034Z,8.95
2023-02-04T12:18:54.748Z,8.77
2023-02-04T12:21:21.408Z,8.70
2023-02-04T12:23:48.139Z,9.20
2023-02-04T12:26:14.802Z,9.30
2023-02-04T12:28:41.444Z,9.57
2023-02-04T12:31:08.208Z,10.18
2023-02-04T12:33:34.905Z,9.84
2023-02-04T12:36:01.590Z,9.75
2023-02-04T12:38:28.227Z,10.11
2023-02-04T12:40:54.877Z,9.73
2023-02-04T12:43:21.516Z,9.37
2023-02-04T12:45:48.288Z,9.71
2023-02-04T12:48:14.987Z,9.69
2023-02-04T12:50:41.674Z,9.73
2023-02-04T12:53:10.392Z,9.46
2023-02-04T12:55:37.087Z,9.62
2023-02-04T12:58:03.863Z,9.33
2023-02-04T13:00:30.564Z,9.11
2023-02-04T13:02:57.275Z,9.37
2023-02-04T13:05:23.954Z,9.56
2023-02-04T13:07:50.650Z,9.02
2023-02-04T13:10:17.312Z,8.80
2023-02-04T13:12:43.958Z,8.88
2023-02-04T13:15:10.634Z,9.24
2023-02-04T13:17:37.349Z,9.17
2023-02-04T13:20:04.029Z,9.44
2023-02-04T13:22:30.723Z,9.79
2023-02-04T13:24:57.445Z,9.51
2023-02-04T13:27:24.092Z,9.27
2023-02-04T13:29:50.721Z,8.79
2023-02-04T13:32:17.385Z,9.18
2023-02-04T13:34:44.000Z,9.25
2023-02-04T13:37:10.589Z,9.66
2023-02-04T13:39:37.221Z,9.55
2023-02-04T13:42:04.608Z,9.41
2023-02-04T13:44:31.382Z,9.78
2023-02-04T13:46:58.053Z,10.02
2023-02-04T13:49:24.697Z,9.91
2023-02-04T13:51:51.396Z,9.65
2023-02-04T13:54:18.023Z,9.59
2023-02-04T13:56:44.718Z,9.53
2023-02-04T13:59:11.441Z,9.70
2023-02-04T14:01:38.130Z,9.50
2023-02-04T14:04:04.858Z,9.06
2023-02-04T14:06:31.574Z,9.44
2023-02-04T14:08:58.229Z,9.46
2023-02-04T14:11:24.904Z,9.19
2023-02-04T14:13:51.569Z,9.52
2023-02-04T14:16:18.266Z,9.69
2023-02-04T14:18:45.031Z,9.92
2023-02-04T14:21:11.694Z,9.69
2023-02-04T14:23:38.344Z,9.83
2023-02-04T14:26:04.989Z,9.46
2023-02-04T14:28:31.668Z,8.99
2023-02-04T14:30:58.341Z,8.99
2023-02-04T14:33:25.065Z,9.61
2023-02-04T14:35:51.698Z,9.57
2023-02-04T14:38:18.331Z,9.01
2023-02-04T14:40:45.803Z,9.10
2023-02-04T14:43:12.519Z,9.29
2023-02-04T14:45:39.251Z,9.56
2023-02-04T14:48:05.938Z,9.32
2023-02-04T14:50:32.961Z,9.07
2023-02-04T14:52:59.774Z,9.18
2023-02-04T14:55:26.477Z,9.23
2023-02-04T14:57:53.120Z,8.95
2023-02-04T15:00:20.080Z,9.26
2023-02-04T15:02:46.836Z,8.88
2023-02-04T15:05:13.494Z,8.67
2023-02-04T15:07:40.208Z,8.50
2023-02-04T15:10:06.883Z,8.78
2023-02-04T15:12:33.549Z,8.34
2023-02-04T15:15:00.167Z,8.19
2023-02-04T15:17:26.899Z,8.20
2023-02-04T15:19:53.616Z,8.21
2023-02-04T15:22:20.328Z,8.26
2023-02-04T15:24:46.933Z,7.94
2023-02-04T15:27:13.582Z,7.81
2023-02-04T15:29:40.220Z,7.41
2023-02-04T15:32:06.894Z,7.22
2023-02-04T15:34:33.538Z,7.23
2023-02-04T15:37:00.201Z,7.62
2023-02-04T15:39:26.920Z,7.91
2023-02-04T15:41:53.696Z,7.74
2023-02-04T15:44:20.298Z,7.67
2023-02-04T15:46:46.981Z,7.86
2023-02-04T15:49:13.578Z,7.91
2023-02-04T15:51:40.252Z,7.61
2023-02-04T15:54:06.963Z,7.78
2023-02-04T15:56:33.613Z,7.78
2023-02-04T15:59:02.372Z,8.03
2023-02-04T16:01:29.256Z,7.79
2023-02-04T16:03:55.969Z,7.40
2023-02-04T16:06:22.613Z,7.21
2023-02-04T16:08:49.237Z,7.63
2023-02-04T16:11:15.827Z,7.19
2023-02-04T16:13:42.474Z,7.07
2023-02-04T16:16:09.182Z,7.00
2023-02-04T16:18:35.908Z,7.27
2023-02-04T16:21:02.558Z,6.95
2023-02-04T16:23:29.259Z,7.04
2023-02-04T16:25:55.903Z,6.82
2023-02-04T16:28:22.681Z,7.02
2023-02-04T16:30:49.478Z,6.67
2023-02-04T16:33:16.178Z,6.87
2023-02-04T16:35:42.891Z,7.08
2023-02-04T16:38:09.514Z,6.93
2023-02-04T16:40:36.200Z,6.84
2023-02-04T16:43:02.823Z,6.47
2023-02-04T16:45:29.525Z,6.78
2023-02-04T16:47:56.159Z,6.95
2023-02-04T16:50:22.816Z,6.95
2023-02-04T16:52:49.482Z,6.97
2023-02-04T16:55:16.333Z,7.36
2023-02-04T16:57:43.007Z,6.89
2023-02-04T17:00:09.640Z,6.88
2023-02-04T17:02:36.327Z,6.74
2023-02-04T17:05:02.953Z,6.81
2023-02-04T17:07:29.609Z,6.65
2023-02-04T17:09:56.267Z,6.99
2023-02-04T17:12:22.869Z,7.11
2023-02-04T17:14:49.485Z,6.84
2023-02-04T17:17:16.079Z,7.07
2023-02-04T17:19:42.747Z,6.87
2023-02-04T17:22:09.392Z,7.11
2023-02-04T17:24:36.365Z,7.22
2023-02-04T17:27:03.015Z,7.42
2023-02-04T17:29:29.715Z,7.32
2023-02-04T17:31:56.446Z,7.24
2023-02-04T17:34:23.125Z,7.21
2023-02-04T17:36:49.813Z,7.30
2023-02-04T17:39:16.459Z,7.41
2023-02-04T17:41:43.554Z,7.48
2023-02-04T17:44:10.159Z,7.31
2023-02-04T17:46:37.075Z,6.98
2023-02-04T17:49:03.732Z,6.95
2023-02-04T17:51:30.428Z,7.23
2023-02-04T17:53:57.104Z,7.49
2023-02-04T17:56:23.764Z,7.20
2023-02-04T17:58:50.508Z,7.37
2023-02-04T18:01:17.325Z,7.11
2023-02-04T18:03:44.306Z,7.21
2023-02-04T18:06:12.873Z,7.36
2023-02-04T18:08:40.650Z,7.48
2023-02-04T18:11:07.275Z,7.26
2023-02-04T18:13:34.202Z,7.24
2023-02-04T18:16:01.031Z,7.39
2023-02-04T18:21:13.249Z,7.30
2023-02-04T18:23:39.918Z,6.72
2023-02-04T18:26:06.624Z,6.95
2023-02-04T18:28:33.265Z,6.96
2023-02-04T18:30:59.960Z,6.65
2023-02-04T18:33:26.835Z,6.97
2023-02-04T18:35:53.525Z,7.29
2023-02-04T18:38:20.236Z,7.16
2023-02-04T18:40:46.929Z,7.05
2023-02-04T18:43:13.998Z,6.50
2023-02-04T18:45:40.809Z,6.83
2023-02-04T18:48:07.497Z,6.79
2023-02-04T18:50:34.341Z,6.79
2023-02-04T18:53:01.318Z,6.83
2023-02-04T18:55:27.993Z,6.73
2023-02-04T18:57:54.692Z,7.10
2023-02-04T19:00:21.356Z,7.18
2023-02-04T19:02:48.047Z,6.98
2023-02-04T19:05:15.422Z,7.03
2023-02-04T19:07:42.215Z,6.96
2023-02-04T19:10:08.898Z,7.09
2023-02-04T19:12:35.700Z,7.13
2023-02-04T19:15:02.407Z,6.93
2023-02-04T19:17:29.040Z,7.08
2023-02-04T19:19:55.772Z,7.19
2023-02-04T19:22:22.419Z,6.98
2023-02-04T19:24:51.139Z,6.74
2023-02-04T19:27:17.801Z,6.50
2023-02-04T19:29:44.404Z,6.56
2023-02-04T19:32:11.504Z,6.56
2023-02-04T19:34:38.211Z,6.75
2023-02-04T19:37:04.910Z,6.62
2023-02-04T19:39:31.565Z,6.74
2023-02-04T19:41:58.209Z,6.51
2023-02-04T19:44:24.879Z,6.67
2023-02-04T19:46:51.551Z,6.56
2023-02-04T19:49:18.388Z,6.51
2023-02-04T19:51:46.579Z,6.76
2023-02-04T19:54:13.321Z,6.70
2023-02-04T19:56:39.950Z,6.42
2023-02-04T19:59:06.642Z,6.58
2023-02-04T20:01:33.413Z,6.65
2023-02-04T20:04:01.218Z,6.62
2023-02-04T20:06:27.968Z,5.25
2023-02-04T20:08:54.625Z,5.81
2023-02-04T20:11:21.289Z,6.40
2023-02-04T20:13:47.954Z,6.69
2023-02-04T20:16:14.637Z,6.69
2023-02-04T20:18:41.326Z,6.54
2023-02-04T20:21:08.039Z,5.89
2023-02-04T20:23:34.751Z,6.10
2023-02-04T20:26:01.429Z,6.20
2023-02-04T20:28:28.122Z,6.24
2023-02-04T20:30:54.841Z,6.43
2023-02-04T20:33:21.597Z,6.46
2023-02-04T20:35:48.325Z,6.47
2023-02-04T20:38:15.041Z,6.51
2023-02-04T20:40:41.784Z,6.64
2023-02-04T20:43:08.500Z,6.52
2023-02-04T20:45:35.507Z,6.18
2023-02-04T20:48:05.056Z,6.06
2023-02-04T20:50:31.766Z,6.09
2023-02-04T20:52:58.489Z,6.40
2023-02-04T20:55:25.152Z,6.36
2023-02-04T20:57:51.799Z,6.40
2023-02-04T21:00:18.537Z,6.44
2023-02-04T21:02:45.207Z,6.27
2023-02-04T21:05:11.910Z,6.16
2023-02-04T21:07:38.560Z,6.18
2023-02-04T21:10:05.277Z,6.41
2023-02-04T21:12:31.914Z,5.97
2023-02-04T21:14:58.618Z,5.54
2023-02-04T21:17:25.286Z,5.84
2023-02-04T21:19:51.982Z,6.16
2023-02-04T21:22:18.663Z,6.08
2023-02-04T21:24:45.411Z,5.52
2023-02-04T21:27:12.010Z,5.90
2023-02-04T21:29:38.674Z,5.93
2023-02-04T21:32:05.307Z,5.96
2023-02-04T21:34:32.227Z,6.11
2023-02-04T21:36:58.895Z,5.81
2023-02-04T21:39:25.502Z,5.99
2023-02-04T21:41:52.225Z,5.88
2023-02-04T21:44:18.876Z,5.71
2023-02-04T21:46:45.512Z,5.99
2023-02-04T21:49:12.152Z,5.61
2023-02-04T21:51:38.860Z,5.99
2023-02-04T21:54:05.523Z,6.32
2023-02-04T21:56:32.136Z,6.34
2023-02-04T21:58:58.831Z,6.24
2023-02-04T22:01:25.540Z,5.93
2023-02-04T22:03:52.258Z,5.84
2023-02-04T22:06:18.967Z,5.68
2023-02-04T22:08:45.660Z,5.74
2023-02-04T22:11:12.341Z,5.27
2023-02-04T22:13:38.989Z,5.52
2023-02-04T22:16:05.710Z,5.73
2023-02-04T22:18:32.406Z,5.43
2023-02-04T22:20:59.064Z,5.75
2023-02-04T22:23:25.695Z,6.05
2023-02-04T22:25:52.361Z,5.78
2023-02-04T22:28:19.090Z,5.93
2023-02-04T22:30:45.912Z,6.30
2023-02-04T22:33:12.612Z,6.23
2023-02-04T22:35:39.248Z,5.83
2023-02-04T22:38:05.984Z,5.86
2023-02-04T22:40:32.652Z,5.92
2023-02-04T22:42:59.356Z,5.07
2023-02-04T22:45:25.977Z,5.40
2023-02-04T22:47:52.658Z,5.55
2023-02-04T22:50:19.259Z,5.50
2023-02-04T22:52:46.417Z,5.39
2023-02-04T22:55:13.031Z,5.35
2023-02-04T22:57:39.721Z,5.59
2023-02-04T23:00:06.369Z,5.55
2023-02-04T23:02:33.057Z,5.78
2023-02-04T23:04:59.755Z,5.50
2023-02-04T23:07:26.414Z,5.83
2023-02-04T23:09:53.096Z,6.21
2023-02-04T23:12:19.771Z,6.12
2023-02-04T23:14:46.468Z,5.65
2023-02-04T23:17:13.111Z,5.74
2023-02-04T23:19:39.785Z,6.06
2023-02-04T23:22:06.457Z,6.23
2023-02-04T23:24:33.092Z,5.26
2023-02-04T23:26:59.707Z,5.53
2023-02-04T23:29:26.344Z,5.83
2023-02-04T23:31:53.072Z,6.09
2023-02-04T23:34:19.745Z,5.90
2023-02-04T23:36:46.454Z,6.13
2023-02-04T23:39:13.129Z,6.34
2023-02-04T23:41:39.829Z,6.30
2023-02-04T23:44:06.439Z,6.28
2023-02-04T23:46:33.092Z,6.34
2023-02-04T23:48:59.712Z,6.53
2023-02-04T23:51:26.381Z,6.55
2023-02-04T23:53:53.064Z,6.41
2023-02-04T23:56:19.826Z,6.34
2023-02-04T23:58:46.509Z,6.12
